Terminal Aerodrome Forecast
Issued by NWS

Home | Current Version | Previous Version | Text Only | Print | Product List | Glossary Off
Versions: 1 2 3 4 5 6 7 8 9 10 11 12 13 14 15 16

190
FTUS43 KIWX 310520
TAFSBN
TAF
KSBN 310520Z 3106/0106 35003KT P6SM SCT007 BKN150
     FM310900 35003KT 5SM BR SCT004 BKN025
     FM311400 35005KT P6SM SCT025 BKN040
     FM311900 35010KT P6SM SCT050 BKN200
     FM010200 35006KT P6SM FEW250=

USA.gov is the U.S. government's official web portal to all federal, state and local government web resources and services.